Time;durP1;ratioP1;P1;durP2;ratioP2;P2;SDS_P1;SDS_P2;PMS_P1;PMS_P2;Temp;Humidity;BMP_temperature;BMP_pressure;BME280_temperature;BME280_humidity;BME280_pressure;Samples;Min_cycle;Max_cycle;Signal;HPM_P1;HPM_P2
2022/12/08 00:01:27;;;;;;;13.63;6.38;;;2.10;99.90;;;;;;5029582;28;20037;-68
2022/12/08 00:03:54;;;;;;;10.45;5.85;;;2.10;99.90;;;;;;5038949;28;20086;-68
2022/12/08 00:09:32;;;;;;;15.70;6.43;;;2.20;99.90;;;;;;5031779;28;20469;-67
2022/12/08 00:11:59;;;;;;;;;;;2.10;99.90;;;;;;5039442;28;20136;-67
2022/12/08 00:14:40;;;;;;;14.93;5.85;;;2.10;99.90;;;;;;5036802;28;19917;-67
2022/12/08 00:17:08;;;;;;;13.25;5.50;;;2.00;99.90;;;;;;5033610;28;20128;-67
2022/12/08 00:19:34;;;;;;;14.23;5.50;;;2.10;99.90;;;;;;5025689;28;20041;-67
2022/12/08 00:22:00;;;;;;;11.05;4.95;;;2.10;99.90;;;;;;5026447;28;20460;-67
2022/12/08 00:24:30;;;;;;;11.77;5.18;;;2.10;99.90;;;;;;5023288;28;20076;-67
2022/12/08 00:26:56;;;;;;;12.98;5.90;;;2.10;99.90;;;;;;5022215;28;20525;-67
2022/12/08 00:29:21;;;;;;;18.65;6.07;;;2.10;99.90;;;;;;5022403;28;20045;-67
2022/12/08 00:31:47;;;;;;;12.38;5.07;;;2.00;99.90;;;;;;5033401;28;20043;-66
2022/12/08 00:34:13;;;;;;;9.40;5.70;;;2.00;99.90;;;;;;5051643;28;20047;-67
2022/12/08 00:36:40;;;;;;;12.93;5.70;;;2.00;99.90;;;;;;5035715;28;20060;-66
2022/12/08 00:39:05;;;;;;;17.50;6.25;;;2.00;99.90;;;;;;5052352;28;20071;-66
2022/12/08 00:44:20;;;;;;;12.68;5.47;;;2.00;99.90;;;;;;5040360;28;20788;-66
2022/12/08 00:46:46;;;;;;;15.35;5.75;;;2.00;99.90;;;;;;5037221;28;20042;-65
2022/12/08 00:49:13;;;;;;;11.77;6.00;;;2.10;99.90;;;;;;5044148;28;20041;-66
2022/12/08 00:51:39;;;;;;;10.43;6.15;;;2.10;99.90;;;;;;5039089;28;20048;-66
2022/12/08 00:54:05;;;;;;;11.77;6.00;;;2.10;99.90;;;;;;5041407;28;20031;-66
2022/12/08 00:56:32;;;;;;;11.55;6.03;;;2.10;99.90;;;;;;5037352;28;20037;-64
2022/12/08 00:58:58;;;;;;;14.65;6.45;;;2.10;99.90;;;;;;5039276;28;20102;-65
2022/12/08 01:01:24;;;;;;;8.40;5.85;;;2.20;99.90;;;;;;5029353;28;20048;-66
2022/12/08 01:03:50;;;;;;;14.50;6.60;;;2.10;99.90;;;;;;5024298;28;20045;-67
2022/12/08 01:06:16;;;;;;;16.70;6.68;;;2.10;99.90;;;;;;5016927;28;20045;-67
2022/12/08 01:08:41;;;;;;;19.67;5.63;;;2.10;99.90;;;;;;5027027;28;20433;-66
2022/12/08 01:11:11;;;;;;;16.27;6.63;;;2.20;99.90;;;;;;5023331;28;20052;-66
2022/12/08 01:13:37;;;;;;;15.52;6.28;;;2.20;99.90;;;;;;5024387;28;20048;-67
2022/12/08 01:16:02;;;;;;;12.25;6.95;;;2.10;99.90;;;;;;5022198;28;20366;-69
2022/12/08 01:18:28;;;;;;;13.52;6.15;;;2.10;99.90;;;;;;5026970;28;20038;-66
2022/12/08 01:20:54;;;;;;;12.20;5.85;;;2.10;99.90;;;;;;5006193;28;20049;-67
2022/12/08 01:23:20;;;;;;;10.75;5.25;;;2.10;99.90;;;;;;5021917;28;20026;-67
2022/12/08 01:25:46;;;;;;;12.75;6.85;;;2.10;99.90;;;;;;5020393;28;20691;-67
2022/12/08 01:28:11;;;;;;;15.65;7.15;;;2.10;99.90;;;;;;5025935;28;20194;-67
2022/12/08 01:30:38;;;;;;;19.90;6.63;;;2.10;99.90;;;;;;5023652;28;20543;-66
2022/12/08 01:33:05;;;;;;;15.45;7.60;;;2.00;99.90;;;;;;5035904;28;20069;-67
2022/12/08 01:35:32;;;;;;;14.40;6.68;;;2.00;99.90;;;;;;5023265;28;20447;-67
2022/12/08 01:37:58;;;;;;;12.50;6.70;;;2.00;99.90;;;;;;5025927;28;20114;-67
2022/12/08 01:40:23;;;;;;;18.42;6.65;;;2.10;99.90;;;;;;5023695;28;20489;-67
2022/12/08 01:42:49;;;;;;;17.77;7.15;;;2.00;99.90;;;;;;5024515;28;20095;-67
2022/12/08 01:45:28;;;;;;;11.60;7.00;;;2.10;99.90;;;;;;5020332;28;20433;-67
2022/12/08 01:47:59;;;;;;;18.27;6.75;;;2.10;99.90;;;;;;5022545;28;20037;-67
2022/12/08 01:50:26;;;;;;;14.02;7.43;;;2.00;99.90;;;;;;5020070;28;20052;-67
2022/12/08 01:53:00;;;;;;;16.60;7.35;;;2.10;99.90;;;;;;5024533;28;20099;-67
2022/12/08 01:55:31;;;;;;;14.27;6.60;;;2.00;99.90;;;;;;5020931;28;20371;-67
2022/12/08 01:58:05;;;;;;;13.65;7.00;;;2.00;99.90;;;;;;5021759;28;20074;-67
2022/12/08 02:00:30;;;;;;;11.63;6.25;;;2.00;99.90;;;;;;5023426;28;20056;-67
2022/12/08 02:03:03;;;;;;;13.75;7.47;;;2.00;99.90;;;;;;5028307;28;20038;-67
2022/12/08 02:05:32;;;;;;;17.13;7.68;;;2.00;99.90;;;;;;5030531;28;20080;-67
2022/12/08 02:08:00;;;;;;;13.45;7.53;;;2.00;99.90;;;;;;5035759;28;20045;-67
2022/12/08 02:10:28;;;;;;;15.23;8.45;;;2.00;99.90;;;;;;5041504;28;20493;-68
2022/12/08 02:12:56;;;;;;;18.63;8.52;;;2.00;99.90;;;;;;5044311;28;20540;-67
2022/12/08 02:15:34;;;;;;;14.65;7.78;;;2.10;99.90;;;;;;5045040;28;20048;-67
2022/12/08 02:18:05;;;;;;;19.98;8.40;;;2.00;99.90;;;;;;5036712;28;20047;-67
2022/12/08 02:20:49;;;;;;;14.80;8.10;;;2.10;99.90;;;;;;5041298;28;20458;-67
2022/12/08 02:23:25;;;;;;;14.43;7.97;;;2.00;99.90;;;;;;5034515;28;20037;-67
2022/12/08 02:26:13;;;;;;;15.02;8.07;;;2.00;99.90;;;;;;5038429;28;20068;-67
2022/12/08 02:29:04;;;;;;;18.48;7.75;;;2.00;99.90;;;;;;5032678;28;20161;-67
2022/12/08 02:32:06;;;;;;;16.52;8.43;;;2.00;99.90;;;;;;5031763;28;20045;-67
2022/12/08 02:34:46;;;;;;;14.55;7.25;;;2.00;99.90;;;;;;5039827;28;20048;-67
2022/12/08 02:37:24;;;;;;;14.82;6.50;;;2.00;99.90;;;;;;5035124;28;20087;-67
2022/12/08 02:40:14;;;;;;;18.25;8.50;;;2.00;99.90;;;;;;5042852;28;20065;-67
2022/12/08 02:42:46;;;;;;;18.73;7.07;;;2.10;99.90;;;;;;5039857;28;20072;-67
2022/12/08 02:45:15;;;;;;;13.13;7.15;;;2.00;99.90;;;;;;5042720;28;20509;-67
2022/12/08 02:47:42;;;;;;;14.25;7.40;;;2.00;99.90;;;;;;5039115;28;20049;-67
2022/12/08 02:50:08;;;;;;;18.10;7.30;;;2.00;99.90;;;;;;5043527;28;20178;-67
2022/12/08 02:52:42;;;;;;;17.17;7.22;;;2.00;99.90;;;;;;5033179;28;20068;-67
2022/12/08 02:55:39;;;;;;;14.82;7.60;;;2.00;99.90;;;;;;5038662;28;20052;-65
2022/12/08 02:58:21;;;;;;;15.07;7.40;;;2.00;99.90;;;;;;5040172;28;20049;-66
2022/12/08 03:00:53;;;;;;;13.85;6.85;;;2.00;99.90;;;;;;5035340;28;20080;-66
2022/12/08 03:03:26;;;;;;;16.48;7.43;;;2.00;99.90;;;;;;5037825;28;20162;-65
2022/12/08 03:06:04;;;;;;;17.48;6.95;;;2.00;99.90;;;;;;5038090;28;20905;-65
2022/12/08 03:08:36;;;;;;;15.00;7.45;;;2.00;99.90;;;;;;5028554;28;20070;-66
2022/12/08 03:11:20;;;;;;;17.58;7.90;;;2.00;99.90;;;;;;5034297;28;20838;-65
2022/12/08 03:13:51;;;;;;;15.80;7.28;;;2.00;99.90;;;;;;5039918;28;20041;-66
2022/12/08 03:16:25;;;;;;;13.85;7.05;;;2.00;99.90;;;;;;5028399;28;20759;-67
2022/12/08 03:19:03;;;;;;;23.95;7.38;;;2.00;99.90;;;;;;5039691;28;20045;-67
2022/12/08 03:21:29;;;;;;;16.65;7.28;;;2.00;99.90;;;;;;5029713;28;20053;-67
2022/12/08 03:23:56;;;;;;;13.40;6.68;;;2.10;99.90;;;;;;5039085;28;20052;-67
2022/12/08 03:26:32;;;;;;;13.48;7.70;;;2.00;99.90;;;;;;5034492;28;20049;-67
2022/12/08 03:28:58;;;;;;;13.40;7.15;;;2.00;99.90;;;;;;5036590;28;20114;-67
2022/12/08 03:31:28;;;;;;;14.50;7.72;;;2.10;99.90;;;;;;5033385;28;20037;-67
2022/12/08 03:33:57;;;;;;;15.15;7.57;;;2.10;99.90;;;;;;5041550;28;20198;-67
2022/12/08 03:36:23;;;;;;;12.30;6.90;;;2.10;99.90;;;;;;5026766;28;20061;-67
2022/12/08 03:38:51;;;;;;;15.98;7.10;;;2.00;99.90;;;;;;5039352;28;20041;-67
2022/12/08 03:41:18;;;;;;;13.70;6.65;;;2.10;99.90;;;;;;5038229;28;20040;-66
2022/12/08 03:43:53;;;;;;;11.52;6.10;;;2.00;99.90;;;;;;5040422;28;20128;-67
2022/12/08 03:46:22;;;;;;;14.00;7.10;;;2.00;99.90;;;;;;5039111;28;20104;-67
2022/12/08 03:48:48;;;;;;;9.00;5.90;;;2.00;99.90;;;;;;5043452;28;20076;-65
2022/12/08 03:51:14;;;;;;;13.02;6.15;;;2.10;99.90;;;;;;5037959;28;20104;-66
2022/12/08 03:53:40;;;;;;;9.05;5.63;;;2.10;99.90;;;;;;5040328;28;20044;-67
2022/12/08 03:56:13;;;;;;;11.52;5.68;;;2.00;99.90;;;;;;5041625;28;20041;-65
2022/12/08 03:58:39;;;;;;;14.23;6.45;;;2.00;99.90;;;;;;5048613;28;20037;-67
2022/12/08 04:01:05;;;;;;;12.88;5.32;;;2.00;99.90;;;;;;5040469;28;20040;-67
2022/12/08 04:03:30;;;;;;;10.10;5.22;;;2.00;99.90;;;;;;5044867;28;20044;-67
2022/12/08 04:05:56;;;;;;;10.77;5.30;;;2.00;99.90;;;;;;5038924;28;20116;-67
2022/12/08 04:08:22;;;;;;;11.32;5.20;;;2.00;99.90;;;;;;5040652;28;20041;-66
2022/12/08 04:10:47;;;;;;;8.88;5.57;;;2.00;99.90;;;;;;5047606;28;20444;-66
2022/12/08 04:13:13;;;;;;;13.45;4.80;;;2.00;99.90;;;;;;5045456;28;20048;-66
2022/12/08 04:15:38;;;;;;;10.25;5.43;;;2.00;99.90;;;;;;5039483;28;20041;-66
2022/12/08 04:18:04;;;;;;;9.35;4.65;;;2.00;99.90;;;;;;5044754;28;20531;-66
2022/12/08 04:20:29;;;;;;;10.48;4.93;;;2.00;99.90;;;;;;5040165;28;20033;-65
2022/12/08 04:22:55;;;;;;;9.10;5.03;;;2.00;99.90;;;;;;5043363;28;20043;-65
2022/12/08 04:25:21;;;;;;;11.32;4.90;;;2.00;99.90;;;;;;5039539;28;20160;-64
2022/12/08 04:27:46;;;;;;;13.02;5.60;;;2.00;99.90;;;;;;5042287;28;20048;-65
2022/12/08 04:30:12;;;;;;;10.63;4.90;;;2.00;99.90;;;;;;5047369;28;20149;-65
2022/12/08 04:32:37;;;;;;;7.35;4.95;;;2.00;99.90;;;;;;5040872;28;20041;-65
2022/12/08 04:35:03;;;;;;;13.65;6.40;;;2.00;99.90;;;;;;5048012;28;21873;-66
2022/12/08 04:37:29;;;;;;;8.13;5.00;;;2.10;99.90;;;;;;5034771;28;20144;-66
2022/12/08 04:39:55;;;;;;;8.65;5.10;;;2.00;99.90;;;;;;5038446;28;20048;-66
2022/12/08 04:42:20;;;;;;;8.18;4.35;;;2.00;99.90;;;;;;5034014;28;20444;-66
2022/12/08 04:44:46;;;;;;;8.10;4.38;;;2.00;99.90;;;;;;5041873;28;20495;-66
2022/12/08 04:47:12;;;;;;;9.48;4.45;;;2.00;99.90;;;;;;5045728;28;20436;-67
2022/12/08 04:49:37;;;;;;;6.00;4.07;;;2.00;99.90;;;;;;5044993;28;20041;-67
2022/12/08 04:52:03;;;;;;;8.57;4.25;;;2.00;99.90;;;;;;5040139;28;20040;-67
2022/12/08 04:54:29;;;;;;;11.88;5.22;;;2.10;99.90;;;;;;5043265;28;20691;-67
2022/12/08 04:56:54;;;;;;;10.00;5.03;;;2.00;99.90;;;;;;5037886;28;20127;-67
2022/12/08 04:59:20;;;;;;;6.05;4.13;;;2.00;99.90;;;;;;5039535;28;20068;-67
2022/12/08 05:01:45;;;;;;;8.32;4.63;;;2.00;99.90;;;;;;5040321;28;20037;-67
2022/12/08 05:04:11;;;;;;;9.15;4.25;;;2.00;99.90;;;;;;5042436;28;20037;-67
2022/12/08 05:06:37;;;;;;;9.07;4.45;;;1.90;99.90;;;;;;5029448;28;20048;-65
2022/12/08 05:09:02;;;;;;;7.38;4.60;;;2.00;99.90;;;;;;5044472;28;20025;-68
2022/12/08 05:11:28;;;;;;;10.40;4.97;;;2.00;99.90;;;;;;5037988;28;20068;-68
2022/12/08 05:13:54;;;;;;;8.70;4.55;;;2.00;99.90;;;;;;5040691;28;20517;-66
2022/12/08 05:16:19;;;;;;;6.50;4.45;;;2.00;99.90;;;;;;5037584;28;20153;-66
2022/12/08 05:18:45;;;;;;;8.25;4.57;;;2.00;99.90;;;;;;5042467;28;20148;-66
2022/12/08 05:21:11;;;;;;;8.27;5.25;;;2.00;99.90;;;;;;5029498;28;20037;-66
2022/12/08 05:23:36;;;;;;;7.40;4.95;;;2.00;99.90;;;;;;5029213;28;20047;-67
2022/12/08 05:26:02;;;;;;;6.18;3.92;;;2.00;99.90;;;;;;5038909;28;20068;-67
2022/12/08 05:28:28;;;;;;;5.35;3.63;;;2.00;99.90;;;;;;5045244;28;20052;-67
2022/12/08 05:30:53;;;;;;;5.47;4.13;;;2.00;99.90;;;;;;5041986;28;20037;-67
2022/12/08 05:33:19;;;;;;;9.18;4.85;;;2.00;99.90;;;;;;5048641;28;20085;-67
2022/12/08 05:35:45;;;;;;;11.32;4.30;;;2.00;99.90;;;;;;5039981;28;20088;-67
2022/12/08 05:38:11;;;;;;;5.55;4.07;;;2.00;99.90;;;;;;5031774;28;20056;-67
2022/12/08 05:40:38;;;;;;;5.80;3.85;;;2.00;99.90;;;;;;5037619;28;20053;-67
2022/12/08 05:43:04;;;;;;;8.15;4.65;;;2.00;99.90;;;;;;5042297;28;20041;-67
2022/12/08 05:45:30;;;;;;;6.50;3.60;;;2.00;99.90;;;;;;5040156;28;20420;-67
2022/12/08 05:47:55;;;;;;;6.00;3.40;;;2.00;99.90;;;;;;5041771;28;20064;-67
2022/12/08 05:50:21;;;;;;;4.50;3.10;;;2.00;99.90;;;;;;5037954;28;20493;-67
2022/12/08 05:52:46;;;;;;;4.47;3.17;;;1.90;99.90;;;;;;5031851;28;20577;-67
2022/12/08 05:55:12;;;;;;;7.22;3.72;;;1.90;99.90;;;;;;5031206;28;20037;-67
2022/12/08 05:57:37;;;;;;;5.15;3.63;;;1.90;99.90;;;;;;5038274;28;20605;-67
2022/12/08 06:00:04;;;;;;;6.47;3.90;;;1.80;99.90;;;;;;5042782;28;20041;-67
2022/12/08 06:02:30;;;;;;;4.93;3.85;;;1.90;99.90;;;;;;5039589;28;20040;-67
2022/12/08 06:04:55;;;;;;;6.35;4.88;;;1.80;99.90;;;;;;5040084;28;20047;-67
2022/12/08 06:07:21;;;;;;;6.50;4.40;;;1.80;99.90;;;;;;5023945;28;20041;-67
2022/12/08 06:09:47;;;;;;;9.35;5.20;;;1.80;99.90;;;;;;5033327;28;20046;-66
2022/12/08 06:12:12;;;;;;;7.97;4.63;;;1.80;99.90;;;;;;5043261;28;20033;-67
2022/12/08 06:14:39;;;;;;;8.60;4.90;;;1.80;99.90;;;;;;5041964;28;20065;-66
2022/12/08 06:17:04;;;;;;;6.80;4.57;;;1.90;99.90;;;;;;5036982;28;20041;-66
2022/12/08 06:19:30;;;;;;;7.47;5.00;;;1.80;99.90;;;;;;5040652;28;20044;-66
2022/12/08 06:21:55;;;;;;;7.90;5.30;;;1.80;99.90;;;;;;5037583;28;20041;-66
2022/12/08 06:24:21;;;;;;;8.02;5.47;;;1.80;99.90;;;;;;5042094;28;20041;-66
2022/12/08 06:26:47;;;;;;;9.40;5.43;;;1.80;99.90;;;;;;5043178;28;20045;-66
2022/12/08 06:29:12;;;;;;;7.47;5.40;;;1.80;99.90;;;;;;5044515;28;20040;-66
2022/12/08 06:31:39;;;;;;;7.28;5.38;;;1.90;99.90;;;;;;5038993;28;20045;-67
2022/12/08 06:34:05;;;;;;;8.30;5.75;;;1.90;99.90;;;;;;5032619;28;20094;-66
2022/12/08 06:36:31;;;;;;;8.57;5.68;;;1.80;99.90;;;;;;5033767;28;20041;-66
2022/12/08 06:38:57;;;;;;;9.10;6.10;;;1.90;99.90;;;;;;5037492;28;20037;-65
2022/12/08 06:41:23;;;;;;;8.93;6.05;;;1.90;99.90;;;;;;5047948;28;20507;-64
2022/12/08 06:43:49;;;;;;;9.15;6.57;;;1.90;99.90;;;;;;5040060;28;20124;-66
2022/12/08 06:46:17;;;;;;;9.57;6.22;;;1.90;99.90;;;;;;5041265;28;20470;-67
2022/12/08 06:48:43;;;;;;;8.70;5.75;;;1.90;99.90;;;;;;5040403;28;20622;-64
2022/12/08 06:51:15;;;;;;;10.00;5.68;;;1.90;99.90;;;;;;5039983;28;20047;-65
2022/12/08 06:53:42;;;;;;;8.02;5.45;;;1.90;99.90;;;;;;5039677;28;20043;-66
2022/12/08 06:56:08;;;;;;;10.30;5.57;;;1.90;99.90;;;;;;5045493;28;20048;-64
2022/12/08 06:58:35;;;;;;;7.10;5.00;;;1.90;99.90;;;;;;5047142;28;20033;-66
2022/12/08 07:01:11;;;;;;;7.85;4.28;;;1.90;99.90;;;;;;5045719;28;20099;-67
2022/12/08 07:03:37;;;;;;;;;;;1.90;99.90;;;;;;5043580;28;20115;-67
2022/12/08 07:06:04;;;;;;;14.75;8.88;;;1.90;99.90;;;;;;5037649;28;19931;-65
2022/12/08 07:08:30;;;;;;;15.05;8.77;;;1.90;99.90;;;;;;5033310;28;20066;-66
2022/12/08 07:10:56;;;;;;;6.38;4.38;;;1.90;99.90;;;;;;5040200;28;20041;-67
2022/12/08 07:13:22;;;;;;;6.30;3.65;;;1.90;99.90;;;;;;5043254;28;20038;-67
2022/12/08 07:15:47;;;;;;;6.97;4.85;;;1.90;99.90;;;;;;5042062;28;20068;-66
2022/12/08 07:18:13;;;;;;;10.73;5.80;;;2.00;99.90;;;;;;5049123;28;20088;-66
2022/12/08 07:20:39;;;;;;;5.72;3.88;;;1.90;99.90;;;;;;5044050;28;20041;-66
2022/12/08 07:23:05;;;;;;;11.32;6.85;;;2.00;99.90;;;;;;5042350;28;20676;-66
2022/12/08 07:25:30;;;;;;;29.80;13.23;;;2.00;99.90;;;;;;5038896;28;20049;-66
2022/12/08 07:27:57;;;;;;;11.82;6.68;;;2.00;99.90;;;;;;5035625;28;20120;-67
2022/12/08 07:30:23;;;;;;;32.45;12.98;;;2.00;99.90;;;;;;5060045;28;20037;-67
2022/12/08 07:32:48;;;;;;;12.90;6.90;;;2.00;99.90;;;;;;5040993;28;20038;-66
2022/12/08 07:35:14;;;;;;;9.07;5.25;;;2.00;99.90;;;;;;5058150;28;20037;-65
2022/12/08 07:37:40;;;;;;;12.60;5.75;;;2.00;99.90;;;;;;5038100;28;20100;-65
2022/12/08 07:40:07;;;;;;;8.13;3.97;;;2.00;99.90;;;;;;5055956;28;20045;-65
2022/12/08 07:42:33;;;;;;;7.57;4.50;;;2.00;99.90;;;;;;5037565;28;20049;-66
2022/12/08 07:44:59;;;;;;;6.20;4.28;;;2.00;99.90;;;;;;5040974;28;20033;-65
2022/12/08 07:47:25;;;;;;;9.10;4.68;;;1.90;99.90;;;;;;5041258;28;20049;-66
2022/12/08 07:49:51;;;;;;;7.72;4.45;;;1.90;99.90;;;;;;5060108;28;20342;-65
2022/12/08 07:52:16;;;;;;;36.85;16.48;;;1.90;99.90;;;;;;5037587;28;20140;-66
2022/12/08 07:54:42;;;;;;;17.33;7.15;;;1.90;99.90;;;;;;5045521;28;20041;-66
2022/12/08 07:57:08;;;;;;;12.55;5.50;;;1.90;99.90;;;;;;5045267;28;20055;-66
2022/12/08 07:59:34;;;;;;;13.38;6.53;;;1.90;99.90;;;;;;5051679;28;20049;-66
2022/12/08 08:02:00;;;;;;;7.22;4.03;;;1.90;99.90;;;;;;5030493;28;20038;-65
2022/12/08 08:04:26;;;;;;;5.22;3.15;;;1.90;99.90;;;;;;5040316;28;20052;-66
2022/12/08 08:06:52;;;;;;;6.32;3.05;;;1.90;99.90;;;;;;5036819;28;20084;-65
2022/12/08 08:09:17;;;;;;;4.82;2.80;;;1.90;99.90;;;;;;5049076;28;20029;-65
2022/12/08 08:11:43;;;;;;;4.65;2.60;;;1.90;99.90;;;;;;5042780;28;20548;-65
2022/12/08 08:14:09;;;;;;;3.15;2.47;;;1.90;99.90;;;;;;5036775;28;20134;-65
2022/12/08 08:16:34;;;;;;;3.58;2.63;;;2.00;99.90;;;;;;5042053;28;20693;-65
2022/12/08 08:19:00;;;;;;;4.05;2.60;;;2.00;99.90;;;;;;5046950;28;20088;-65
2022/12/08 08:21:26;;;;;;;3.55;2.60;;;2.00;99.90;;;;;;5041496;28;20451;-65
2022/12/08 08:23:51;;;;;;;3.55;2.42;;;2.00;99.90;;;;;;5044411;28;20053;-65
2022/12/08 08:26:17;;;;;;;8.77;2.55;;;2.10;99.90;;;;;;5038248;28;20583;-65
2022/12/08 08:28:44;;;;;;;2.95;2.13;;;2.10;99.90;;;;;;5043827;28;20524;-66
2022/12/08 08:31:10;;;;;;;2.63;2.00;;;2.10;99.90;;;;;;5040000;28;20033;-64
2022/12/08 08:33:36;;;;;;;3.75;2.45;;;2.20;99.90;;;;;;5044999;28;20045;-65
2022/12/08 08:36:06;;;;;;;3.15;2.30;;;2.20;99.90;;;;;;5037755;28;20060;-64
2022/12/08 08:38:32;;;;;;;3.50;2.20;;;2.20;99.90;;;;;;5042901;28;20404;-64
2022/12/08 08:40:57;;;;;;;3.38;2.33;;;2.20;99.90;;;;;;5037702;28;20034;-64
2022/12/08 08:43:29;;;;;;;3.75;2.38;;;2.20;99.90;;;;;;5044863;28;20033;-65
2022/12/08 08:45:57;;;;;;;3.67;2.20;;;2.20;99.90;;;;;;5036549;28;20042;-65
2022/12/08 08:48:22;;;;;;;2.88;2.10;;;2.30;99.90;;;;;;5048425;28;20051;-65
2022/12/08 08:50:48;;;;;;;2.38;1.63;;;2.20;99.90;;;;;;5050949;28;20542;-65
2022/12/08 08:53:14;;;;;;;4.30;2.03;;;2.30;99.90;;;;;;5045130;28;20670;-65
2022/12/08 08:55:39;;;;;;;2.47;1.70;;;2.20;99.90;;;;;;5041518;28;20728;-65
2022/12/08 08:58:05;;;;;;;3.17;1.60;;;2.20;99.90;;;;;;5039026;28;20139;-65
2022/12/08 09:00:31;;;;;;;3.53;1.73;;;2.30;99.90;;;;;;5040808;28;20045;-65
2022/12/08 09:02:56;;;;;;;2.40;1.60;;;2.20;99.90;;;;;;5043825;28;20048;-63
2022/12/08 09:05:22;;;;;;;2.63;1.70;;;2.20;99.90;;;;;;5040441;28;20385;-66
2022/12/08 09:07:48;;;;;;;2.05;1.55;;;2.30;99.90;;;;;;5034720;28;20041;-65
2022/12/08 09:10:13;;;;;;;2.25;1.63;;;2.30;99.90;;;;;;5043227;28;20030;-65
2022/12/08 09:12:39;;;;;;;2.70;1.52;;;2.30;99.90;;;;;;5041842;28;20075;-65
2022/12/08 09:15:05;;;;;;;2.35;1.50;;;2.30;99.90;;;;;;5040718;28;20148;-65
2022/12/08 09:17:31;;;;;;;2.88;1.60;;;2.30;99.90;;;;;;5033603;28;20548;-65
2022/12/08 09:19:56;;;;;;;2.38;1.67;;;2.30;99.90;;;;;;5050215;28;20055;-66
2022/12/08 09:22:22;;;;;;;2.55;1.90;;;2.30;99.90;;;;;;5040931;28;20041;-65
2022/12/08 09:24:48;;;;;;;3.85;2.25;;;2.30;99.90;;;;;;5042254;28;20080;-65
2022/12/08 09:27:14;;;;;;;3.13;2.30;;;2.30;99.90;;;;;;5039713;28;20033;-66
2022/12/08 09:29:39;;;;;;;2.72;2.08;;;2.30;99.90;;;;;;5046218;28;20073;-65
2022/12/08 09:32:05;;;;;;;2.75;1.70;;;2.30;99.90;;;;;;5038648;28;20132;-66
2022/12/08 09:34:31;;;;;;;2.50;1.80;;;2.30;99.90;;;;;;5049409;28;20041;-66
2022/12/08 09:36:57;;;;;;;1.92;1.58;;;2.30;99.90;;;;;;5029473;28;20046;-66
2022/12/08 09:39:22;;;;;;;3.17;1.77;;;2.30;99.90;;;;;;5045976;28;20082;-66
2022/12/08 09:41:58;;;;;;;2.42;1.80;;;2.30;99.90;;;;;;5044762;28;20037;-66
2022/12/08 09:44:40;;;;;;;2.58;1.83;;;2.30;99.90;;;;;;5035964;28;20047;-66
2022/12/08 09:47:29;;;;;;;5.10;2.25;;;2.30;99.90;;;;;;5040316;28;20071;-66
2022/12/08 09:50:35;;;;;;;5.65;2.72;;;2.40;99.90;;;;;;5044173;28;20145;-66
2022/12/08 09:53:11;;;;;;;1.92;1.65;;;2.40;99.90;;;;;;5032194;28;20130;-65
2022/12/08 09:55:51;;;;;;;2.60;1.90;;;2.40;99.90;;;;;;5036871;28;20049;-66
2022/12/08 09:58:34;;;;;;;9.60;6.97;;;2.50;99.90;;;;;;5028010;28;20041;-66
2022/12/08 10:01:00;;;;;;;8.20;5.40;;;2.40;99.90;;;;;;5038114;28;20489;-66
2022/12/08 10:03:29;;;;;;;10.63;5.95;;;2.30;99.90;;;;;;5043176;28;20033;-66
2022/12/08 10:06:31;;;;;;;4.03;2.17;;;2.40;99.90;;;;;;5044303;28;20040;-65
2022/12/08 10:09:39;;;;;;;4.40;2.38;;;2.30;99.90;;;;;;5039586;28;20059;-66
2022/12/08 10:12:35;;;;;;;3.30;1.73;;;2.30;99.90;;;;;;5025724;28;20045;-66
2022/12/08 10:15:34;;;;;;;2.58;2.00;;;2.30;99.90;;;;;;5042230;28;20130;-66
2022/12/08 10:18:02;;;;;;;1.92;1.48;;;2.30;99.90;;;;;;5045725;28;20042;-66
2022/12/08 10:20:40;;;;;;;2.05;1.33;;;2.30;99.90;;;;;;5041580;28;20045;-66
2022/12/08 10:23:12;;;;;;;8.30;5.43;;;2.30;99.90;;;;;;5044120;28;20033;-66
2022/12/08 10:25:46;;;;;;;6.75;4.30;;;2.20;99.90;;;;;;5038792;28;20071;-66
2022/12/08 10:28:13;;;;;;;2.60;1.98;;;2.20;99.90;;;;;;5041924;28;20634;-66
2022/12/08 10:30:38;;;;;;;4.15;1.85;;;2.20;99.90;;;;;;5036251;28;20067;-66
2022/12/08 10:33:08;;;;;;;2.63;1.40;;;2.30;99.90;;;;;;5035202;28;20045;-65
2022/12/08 10:35:50;;;;;;;1.42;1.17;;;2.30;99.90;;;;;;5035072;28;20037;-65
2022/12/08 10:38:37;;;;;;;2.03;1.20;;;2.30;99.90;;;;;;5036235;28;20044;-66
2022/12/08 10:41:09;;;;;;;4.15;1.60;;;2.30;99.90;;;;;;5037622;28;20041;-66
2022/12/08 10:43:59;;;;;;;5.80;3.42;;;2.30;99.90;;;;;;5043984;28;20040;-65
2022/12/08 10:46:27;;;;;;;1.63;1.20;;;2.40;99.90;;;;;;5038388;28;20055;-66
2022/12/08 10:49:10;;;;;;;2.28;1.27;;;2.40;99.90;;;;;;5037556;28;20048;-66
2022/12/08 10:51:41;;;;;;;1.77;1.20;;;2.40;99.90;;;;;;5041794;28;20047;-65
2022/12/08 10:54:31;;;;;;;3.67;1.20;;;2.40;99.90;;;;;;5041323;28;20155;-66
2022/12/08 10:56:57;;;;;;;2.65;1.00;;;2.40;99.90;;;;;;5035025;28;20068;-66
2022/12/08 10:59:26;;;;;;;1.58;1.05;;;2.40;99.90;;;;;;5041302;28;20049;-66
2022/12/08 11:01:54;;;;;;;1.20;0.90;;;2.30;99.90;;;;;;5031727;28;20083;-64
2022/12/08 11:04:38;;;;;;;1.02;0.70;;;2.30;99.90;;;;;;5046051;28;20111;-67
2022/12/08 11:07:07;;;;;;;0.95;0.70;;;2.30;99.90;;;;;;5034219;28;20045;-67
2022/12/08 11:09:45;;;;;;;1.83;0.80;;;2.30;99.90;;;;;;5042959;28;20058;-62
2022/12/08 11:12:21;;;;;;;1.23;0.85;;;2.30;99.90;;;;;;5036783;28;20497;-66
2022/12/08 11:14:57;;;;;;;0.95;0.70;;;2.30;99.90;;;;;;5038727;28;20485;-65
2022/12/08 11:17:23;;;;;;;1.02;0.68;;;2.30;99.90;;;;;;5040360;28;20804;-68
2022/12/08 11:20:08;;;;;;;1.80;0.80;;;2.40;99.90;;;;;;5043583;28;20033;-68
2022/12/08 11:22:53;;;;;;;3.00;1.25;;;2.40;99.90;;;;;;5043503;28;20045;-66
2022/12/08 11:25:20;;;;;;;1.20;0.70;;;2.40;99.90;;;;;;5032046;28;20092;-63
2022/12/08 11:27:49;;;;;;;1.70;0.70;;;2.50;99.90;;;;;;5037139;28;20120;-65
2022/12/08 11:30:42;;;;;;;1.63;0.80;;;2.60;99.90;;;;;;5043775;28;20052;-65
2022/12/08 11:33:18;;;;;;;0.73;0.57;;;2.60;99.90;;;;;;5047019;28;20036;-66
2022/12/08 11:35:46;;;;;;;;;;;2.70;99.90;;;;;;5036096;28;20374;-66
2022/12/08 11:38:21;;;;;;;1.02;0.70;;;2.70;99.90;;;;;;5039133;28;19997;-64
2022/12/08 11:40:51;;;;;;;0.85;0.55;;;2.70;99.90;;;;;;5048268;28;20116;-66
2022/12/08 11:43:33;;;;;;;0.98;0.60;;;2.60;99.90;;;;;;5027285;28;20041;-65
2022/12/08 11:46:18;;;;;;;1.40;0.90;;;2.50;99.90;;;;;;5034327;28;20512;-62
2022/12/08 11:49:00;;;;;;;1.40;0.80;;;2.60;99.90;;;;;;5037239;28;20045;-66
2022/12/08 11:51:33;;;;;;;1.00;0.60;;;2.60;99.90;;;;;;5036046;28;20045;-67
2022/12/08 11:54:12;;;;;;;1.08;0.50;;;2.60;99.90;;;;;;5044400;28;20041;-67
2022/12/08 11:56:44;;;;;;;0.93;0.77;;;2.60;99.90;;;;;;5033479;28;20044;-66
2022/12/08 11:59:37;;;;;;;0.93;0.60;;;2.70;99.90;;;;;;5026379;28;20052;-68
2022/12/08 12:02:04;;;;;;;0.80;0.50;;;2.70;99.90;;;;;;5044990;28;20051;-67
2022/12/08 12:04:39;;;;;;;0.55;0.50;;;2.50;99.90;;;;;;5034719;28;20112;-66
2022/12/08 12:07:51;;;;;;;1.08;0.60;;;2.50;99.90;;;;;;5042186;28;20079;-64
2022/12/08 12:10:51;;;;;;;1.58;0.60;;;2.50;99.90;;;;;;5044523;28;20047;-64
2022/12/08 12:13:35;;;;;;;0.60;0.60;;;2.30;99.90;;;;;;5033194;28;20037;-65
2022/12/08 12:16:13;;;;;;;2.15;0.68;;;2.40;99.90;;;;;;5041676;28;20154;-63
2022/12/08 12:18:50;;;;;;;0.60;0.60;;;2.40;99.90;;;;;;5037285;28;20045;-66
2022/12/08 12:21:18;;;;;;;1.27;0.77;;;2.40;99.90;;;;;;5032245;28;20044;-66
2022/12/08 12:23:47;;;;;;;0.80;0.77;;;2.50;99.90;;;;;;5044527;28;20040;-66
2022/12/08 12:26:20;;;;;;;0.60;0.60;;;2.40;99.90;;;;;;5028894;28;20050;-66
2022/12/08 12:29:03;;;;;;;1.33;0.90;;;2.40;99.90;;;;;;5047010;28;20540;-68
2022/12/08 12:31:34;;;;;;;1.33;0.80;;;2.30;99.90;;;;;;5034402;28;20041;-66
2022/12/08 12:34:26;;;;;;;1.63;1.00;;;2.40;99.90;;;;;;5035870;28;20421;-66
2022/12/08 12:37:06;;;;;;;0.98;0.80;;;2.40;99.90;;;;;;5037721;28;20057;-66
2022/12/08 12:39:45;;;;;;;1.33;1.05;;;2.40;99.90;;;;;;5040399;28;20578;-66
2022/12/08 12:42:33;;;;;;;1.27;1.00;;;2.40;99.90;;;;;;5036160;28;20042;-66
2022/12/08 12:45:16;;;;;;;1.48;1.02;;;2.40;99.90;;;;;;5040669;28;20049;-67
2022/12/08 12:47:44;;;;;;;1.70;1.10;;;2.40;99.90;;;;;;5033192;28;20681;-66
2022/12/08 12:50:12;;;;;;;1.75;1.10;;;2.30;99.90;;;;;;5039643;28;20033;-67
2022/12/08 12:52:38;;;;;;;4.85;1.50;;;2.30;99.90;;;;;;5033404;28;20037;-66
2022/12/08 12:55:10;;;;;;;1.92;1.30;;;2.30;99.90;;;;;;5039170;28;20040;-66
2022/12/08 12:57:50;;;;;;;2.15;1.33;;;2.40;99.90;;;;;;5039159;28;20060;-66
2022/12/08 13:00:18;;;;;;;1.92;1.60;;;2.40;99.90;;;;;;5032292;28;20124;-66
2022/12/08 13:02:44;;;;;;;1.65;1.38;;;2.30;99.90;;;;;;5034322;28;20103;-67
2022/12/08 13:05:23;;;;;;;1.63;1.50;;;2.30;99.90;;;;;;5041617;28;20041;-65
2022/12/08 13:08:01;;;;;;;1.73;1.55;;;2.20;99.90;;;;;;5040481;28;20045;-65
2022/12/08 13:10:36;;;;;;;5.05;2.00;;;2.20;99.90;;;;;;5046908;28;20040;-66
2022/12/08 13:13:04;;;;;;;3.45;2.10;;;2.20;99.90;;;;;;5044512;28;20045;-65
2022/12/08 13:15:37;;;;;;;3.55;2.40;;;2.20;99.90;;;;;;5042375;28;20083;-66